createdAt,value
2018-07-25T00:03:11.042Z,28.00
2018-07-25T00:08:14.143Z,27.90
2018-07-25T00:13:17.736Z,27.90
2018-07-25T00:18:20.865Z,27.80
2018-07-25T00:28:26.856Z,27.80
2018-07-25T00:33:36.611Z,27.70
2018-07-25T00:38:39.723Z,27.70
2018-07-25T00:43:42.831Z,27.60
2018-07-25T00:48:45.917Z,27.60
2018-07-25T00:53:49.037Z,27.70
2018-07-25T00:58:52.143Z,27.60
2018-07-25T01:03:55.260Z,27.60
2018-07-25T01:08:58.396Z,27.60
2018-07-25T01:14:01.517Z,27.50
2018-07-25T01:19:04.612Z,27.50
2018-07-25T01:24:07.740Z,27.50
2018-07-25T01:29:10.869Z,27.50
2018-07-25T01:34:14.009Z,27.50
2018-07-25T01:39:17.101Z,27.50
2018-07-25T01:44:20.219Z,27.50
2018-07-25T01:49:23.304Z,27.40
2018-07-25T01:54:26.390Z,27.40
2018-07-25T01:59:29.479Z,27.40
2018-07-25T02:04:32.601Z,27.40
2018-07-25T02:09:35.704Z,27.30
2018-07-25T02:14:38.800Z,27.30
2018-07-25T02:19:41.924Z,27.30
2018-07-25T02:24:45.028Z,27.20
2018-07-25T02:29:48.111Z,27.20
2018-07-25T02:34:51.225Z,27.20
2018-07-25T02:39:54.449Z,27.20
2018-07-25T02:44:57.539Z,27.20
2018-07-25T02:50:00.624Z,27.20
2018-07-25T02:55:03.780Z,27.20
2018-07-25T03:00:07.204Z,27.20
2018-07-25T03:05:10.317Z,27.10
2018-07-25T03:10:13.408Z,27.10
2018-07-25T03:15:16.513Z,27.10
2018-07-25T03:20:19.652Z,27.10
2018-07-25T03:25:22.738Z,27.00
2018-07-25T03:30:25.836Z,27.00
2018-07-25T03:35:28.960Z,27.00
2018-07-25T03:40:32.079Z,27.00
2018-07-25T03:45:35.187Z,27.00
2018-07-25T03:50:38.287Z,26.90
2018-07-25T03:55:41.396Z,27.00
2018-07-25T04:00:44.539Z,27.00
2018-07-25T04:05:47.655Z,26.90
2018-07-25T04:10:50.760Z,26.90
2018-07-25T04:15:53.972Z,26.90
2018-07-25T04:20:57.056Z,26.90
2018-07-25T04:26:00.186Z,26.90
2018-07-25T04:31:03.296Z,26.90
2018-07-25T04:36:06.398Z,26.90
2018-07-25T04:41:09.483Z,26.90
2018-07-25T04:46:12.680Z,26.90
2018-07-25T04:51:15.767Z,26.90
2018-07-25T04:56:18.867Z,26.90
2018-07-25T05:01:21.975Z,26.90
2018-07-25T05:06:25.076Z,27.00
2018-07-25T05:11:28.191Z,27.00
2018-07-25T05:16:31.308Z,27.00
2018-07-25T05:21:34.428Z,27.10
2018-07-25T05:26:37.523Z,27.10
2018-07-25T05:31:40.678Z,27.10
2018-07-25T05:36:43.804Z,27.20
2018-07-25T05:41:46.980Z,27.20
2018-07-25T05:46:50.061Z,27.30
2018-07-25T05:51:53.157Z,27.40
2018-07-25T05:56:56.259Z,27.50
2018-07-25T06:01:59.429Z,27.60
2018-07-25T06:07:02.543Z,27.70
2018-07-25T06:12:05.883Z,27.70
2018-07-25T06:17:08.971Z,27.80
2018-07-25T06:22:12.120Z,27.90
2018-07-25T06:32:18.195Z,28.10
2018-07-25T06:37:21.281Z,28.20
2018-07-25T06:42:24.390Z,28.30
2018-07-25T06:47:27.499Z,28.60
2018-07-25T06:52:30.611Z,28.70
2018-07-25T06:57:33.724Z,28.80
2018-07-25T07:02:36.826Z,28.80
2018-07-25T07:07:39.936Z,28.90
2018-07-25T07:12:43.031Z,29.00
2018-07-25T07:17:46.221Z,29.00
2018-07-25T07:22:49.514Z,29.10
2018-07-25T07:32:55.579Z,29.30
2018-07-25T07:37:58.731Z,29.50
2018-07-25T07:48:04.756Z,29.80
2018-07-25T07:53:07.882Z,29.90
2018-07-25T07:58:10.979Z,30.00
2018-07-25T08:03:14.256Z,30.00
2018-07-25T08:08:17.350Z,30.40
2018-07-25T08:13:20.452Z,30.50
2018-07-25T08:18:23.629Z,30.70
2018-07-25T08:23:26.752Z,30.80
2018-07-25T08:28:29.946Z,31.20
2018-07-25T08:33:33.131Z,31.70
2018-07-25T08:38:39.872Z,32.20
2018-07-25T08:43:43.180Z,32.60
2018-07-25T08:48:46.311Z,32.80
2018-07-25T09:03:55.251Z,33.90
2018-07-25T09:08:58.433Z,34.20
2018-07-25T09:14:01.593Z,34.50
2018-07-25T09:19:04.884Z,34.80
2018-07-25T09:29:10.936Z,35.20
2018-07-25T09:34:14.101Z,35.40
2018-07-25T09:44:20.195Z,36.00
2018-07-25T09:49:23.328Z,36.30
2018-07-25T09:54:26.415Z,36.50
2018-07-25T09:59:29.520Z,36.70
2018-07-25T10:04:32.609Z,37.00
2018-07-25T10:09:35.688Z,37.20
2018-07-25T10:14:38.812Z,37.50
2018-07-25T10:19:41.896Z,37.20
2018-07-25T10:24:44.993Z,37.30
2018-07-25T10:29:48.157Z,37.60
2018-07-25T10:34:51.245Z,37.70
2018-07-25T10:39:54.352Z,37.90
2018-07-25T10:44:57.475Z,38.10
2018-07-25T10:50:00.609Z,38.20
2018-07-25T10:55:03.786Z,38.50
2018-07-25T11:05:10.289Z,38.80
2018-07-25T11:10:13.389Z,38.70
2018-07-25T11:15:16.476Z,38.90
2018-07-25T11:20:19.570Z,39.00
2018-07-25T11:25:22.719Z,39.00
2018-07-25T11:30:25.814Z,39.20
2018-07-25T11:35:29.130Z,39.40
2018-07-25T11:40:32.269Z,39.50
2018-07-25T11:45:35.373Z,39.60
2018-07-25T11:50:38.479Z,39.60
2018-07-25T11:55:41.647Z,39.60
2018-07-25T12:00:44.763Z,39.80
2018-07-25T12:05:47.905Z,39.80
2018-07-25T12:20:56.860Z,40.10
2018-07-25T12:25:59.972Z,40.10
2018-07-25T12:31:03.094Z,40.10
2018-07-25T12:36:06.571Z,40.30
2018-07-25T12:41:09.681Z,40.40
2018-07-25T12:46:12.807Z,40.40
2018-07-25T12:51:15.905Z,40.40
2018-07-25T12:56:19.205Z,40.30
2018-07-25T13:01:22.383Z,40.40
2018-07-25T13:06:25.492Z,40.40
2018-07-25T13:11:28.604Z,40.40
2018-07-25T13:16:31.705Z,40.50
2018-07-25T13:21:35.280Z,40.60
2018-07-25T13:26:38.391Z,40.60
2018-07-25T13:31:41.509Z,40.50
2018-07-25T13:36:44.645Z,40.60
2018-07-25T13:41:47.715Z,40.60
2018-07-25T13:46:50.880Z,40.60
2018-07-25T13:51:54.000Z,40.60
2018-07-25T13:56:57.121Z,40.80
2018-07-25T14:02:00.296Z,40.80
2018-07-25T14:07:03.404Z,40.90
2018-07-25T14:12:06.494Z,40.60
2018-07-25T14:17:09.613Z,40.40
2018-07-25T14:22:12.721Z,40.10
2018-07-25T14:27:15.870Z,40.10
2018-07-25T14:32:18.929Z,40.20
2018-07-25T14:37:22.032Z,40.00
2018-07-25T14:42:25.147Z,40.10
2018-07-25T14:47:28.263Z,39.90
2018-07-25T14:52:31.376Z,39.20
2018-07-25T14:57:34.480Z,38.90
2018-07-25T15:02:37.642Z,39.00
2018-07-25T15:07:41.340Z,39.10
2018-07-25T15:12:49.815Z,39.10
2018-07-25T15:17:53.441Z,39.00
2018-07-25T15:22:56.450Z,38.80
2018-07-25T15:27:59.547Z,38.70
2018-07-25T15:33:02.657Z,38.60
2018-07-25T15:38:05.793Z,38.60
2018-07-25T15:43:08.900Z,38.60
2018-07-25T15:48:12.085Z,38.30
2018-07-25T15:53:15.289Z,38.20
2018-07-25T15:58:18.403Z,37.80
2018-07-25T16:03:21.515Z,37.60
2018-07-25T16:08:24.624Z,37.40
2018-07-25T16:13:27.846Z,37.00
2018-07-25T16:18:30.943Z,36.60
2018-07-25T16:23:34.227Z,36.30
2018-07-25T16:33:40.284Z,35.40
2018-07-25T16:38:43.456Z,35.10
2018-07-25T16:43:46.788Z,35.00
2018-07-25T16:48:49.863Z,34.90
2018-07-25T16:53:52.976Z,34.70
2018-07-25T16:58:56.083Z,34.50
2018-07-25T17:03:59.186Z,34.30
2018-07-25T17:09:02.303Z,34.10
2018-07-25T17:14:05.432Z,33.90
2018-07-25T17:19:08.556Z,33.70
2018-07-25T17:24:11.643Z,33.70
2018-07-25T17:29:14.763Z,33.50
2018-07-25T17:34:17.847Z,33.40
2018-07-25T17:39:21.040Z,33.30
2018-07-25T17:44:24.140Z,33.20
2018-07-25T17:49:27.267Z,33.10
2018-07-25T17:54:30.373Z,33.10
2018-07-25T17:59:33.535Z,32.90
2018-07-25T18:04:36.715Z,32.80
2018-07-25T18:09:39.832Z,32.70
2018-07-25T18:14:42.934Z,32.60
2018-07-25T18:19:46.094Z,32.60
2018-07-25T18:24:49.231Z,32.40
2018-07-25T18:29:52.325Z,32.20
2018-07-25T18:34:55.432Z,32.20
2018-07-25T18:39:58.546Z,32.10
2018-07-25T18:45:01.677Z,32.00
2018-07-25T18:50:06.071Z,31.90
2018-07-25T18:55:09.332Z,31.80
2018-07-25T19:00:12.453Z,31.70
2018-07-25T19:05:15.576Z,31.70
2018-07-25T19:10:18.728Z,31.50
2018-07-25T19:15:27.467Z,31.40
2018-07-25T19:20:30.576Z,31.30
2018-07-25T19:25:33.668Z,31.10
2018-07-25T19:30:36.828Z,31.10
2018-07-25T19:35:40.061Z,31.00
2018-07-25T19:40:43.119Z,31.00
2018-07-25T19:45:46.196Z,30.90
2018-07-25T19:50:49.408Z,30.80
2018-07-25T19:55:52.642Z,30.70
2018-07-25T20:00:55.799Z,30.60
2018-07-25T20:05:58.896Z,30.60
2018-07-25T20:11:01.988Z,30.50
2018-07-25T20:16:05.163Z,30.40
2018-07-25T20:21:08.289Z,30.40
2018-07-25T20:26:11.417Z,30.30
2018-07-25T20:31:14.539Z,30.20
2018-07-25T20:36:17.659Z,30.10
2018-07-25T20:41:20.787Z,30.10
2018-07-25T20:46:24.014Z,30.10
2018-07-25T20:51:27.123Z,30.00
2018-07-25T20:56:30.234Z,30.00
2018-07-25T21:01:33.337Z,29.90
2018-07-25T21:06:36.484Z,29.90
2018-07-25T21:11:39.668Z,29.80
2018-07-25T21:16:42.789Z,29.70
2018-07-25T21:21:45.948Z,29.60
2018-07-25T21:26:49.024Z,29.50
2018-07-25T21:31:52.153Z,29.50
2018-07-25T21:36:55.267Z,29.30
2018-07-25T21:41:58.364Z,29.20
2018-07-25T21:47:01.468Z,29.10
2018-07-25T21:52:04.564Z,29.10
2018-07-25T21:57:07.663Z,29.10
2018-07-25T22:02:11.289Z,29.00
2018-07-25T22:07:14.405Z,29.00
2018-07-25T22:17:20.392Z,29.00
2018-07-25T22:22:24.329Z,29.10
2018-07-25T22:27:27.428Z,29.10
2018-07-25T22:32:30.541Z,29.10
2018-07-25T22:37:33.655Z,29.00
2018-07-25T22:47:39.641Z,29.00
2018-07-25T22:52:42.774Z,29.00
2018-07-25T22:57:45.903Z,29.00
2018-07-25T23:02:48.985Z,29.00
2018-07-25T23:07:52.095Z,29.00
2018-07-25T23:12:55.187Z,28.90
2018-07-25T23:17:58.298Z,28.90
2018-07-25T23:28:04.800Z,28.80
2018-07-25T23:33:08.349Z,28.80
2018-07-25T23:38:11.501Z,28.70
2018-07-25T23:43:14.616Z,28.70
2018-07-25T23:48:17.708Z,28.60
2018-07-25T23:53:20.836Z,28.60
2018-07-25T23:58:24.544Z,28.60
